Time;durP1;ratioP1;P1;durP2;ratioP2;P2;SDS_P1;SDS_P2;PMS_P1;PMS_P2;Temp;Humidity;BMP_temperature;BMP_pressure;BME280_temperature;BME280_humidity;BME280_pressure;Samples;Min_cycle;Max_cycle;Signal;HPM_P1;HPM_P2
2023/06/18 00:02:23;;;;;;;;;;;23.30;48.80;;;;;;5073089;28;19912;-35
2023/06/18 00:04:48;;;;;;;;;;;23.30;48.80;;;;;;5073006;28;19940;-36
2023/06/18 00:07:14;;;;;;;;;;;23.30;49.00;;;;;;5072965;28;20368;-37
2023/06/18 00:09:40;;;;;;;;;;;23.30;49.00;;;;;;5072903;28;19912;-37
2023/06/18 00:12:05;;;;;;;;;;;23.30;49.00;;;;;;5072784;28;19912;-37
2023/06/18 00:14:31;;;;;;;;;;;23.20;49.00;;;;;;5072823;28;20005;-36
2023/06/18 00:16:56;;;;;;;;;;;23.20;49.00;;;;;;5072881;28;20367;-36
2023/06/18 00:19:22;;;;;;;;;;;23.20;49.20;;;;;;5072827;28;19969;-36
2023/06/18 00:21:47;;;;;;;;;;;23.10;49.20;;;;;;5072649;28;20345;-35
2023/06/18 00:24:13;;;;;;;;;;;23.10;49.20;;;;;;5072428;28;20363;-35
2023/06/18 00:26:39;;;;;;;;;;;23.10;49.20;;;;;;5072958;28;19956;-36
2023/06/18 00:29:04;;;;;;;;;;;23.10;49.20;;;;;;5072617;28;20263;-36
2023/06/18 00:31:32;;;;;;;;;;;23.10;49.30;;;;;;5072609;28;19960;-35
2023/06/18 00:34:04;;;;;;;;;;;23.10;49.30;;;;;;5072501;28;20003;-36
2023/06/18 00:36:31;;;;;;;;;;;23.00;49.30;;;;;;5072515;28;20559;-37
2023/06/18 00:38:57;;;;;;;;;;;23.00;49.30;;;;;;5072421;28;19935;-35
2023/06/18 00:41:24;;;;;;;;;;;23.00;49.30;;;;;;5072330;28;19955;-35
2023/06/18 00:43:50;;;;;;;;;;;23.00;49.30;;;;;;5072634;28;19996;-37
2023/06/18 00:46:17;;;;;;;;;;;23.00;49.30;;;;;;5072294;28;20024;-36
2023/06/18 00:48:45;;;;;;;;;;;22.90;49.30;;;;;;5072248;28;19920;-37
2023/06/18 00:51:11;;;;;;;;;;;23.00;49.30;;;;;;5072186;28;20082;-36
2023/06/18 00:53:37;;;;;;;;;;;23.00;49.30;;;;;;5072067;28;19935;-35
2023/06/18 00:56:03;;;;;;;;;;;23.00;49.40;;;;;;5072153;28;20380;-36
2023/06/18 00:58:28;;;;;;;;;;;22.90;49.40;;;;;;5072322;28;19923;-34
2023/06/18 01:00:54;;;;;;;;;;;22.90;49.40;;;;;;5072174;28;19935;-37
2023/06/18 01:03:20;;;;;;;;;;;22.90;49.50;;;;;;5072033;28;19918;-35
2023/06/18 01:05:49;;;;;;;;;;;22.80;49.50;;;;;;5053922;28;20300;-33
2023/06/18 01:08:14;;;;;;;;;;;22.80;49.60;;;;;;5053987;28;20003;-37
2023/06/18 01:10:41;;;;;;;;;;;22.70;49.60;;;;;;5071529;28;19912;-41
2023/06/18 01:13:08;;;;;;;;;;;22.70;49.60;;;;;;5071891;28;19913;-37
2023/06/18 01:15:33;;;;;;;;;;;22.70;49.70;;;;;;5071837;28;19959;-37
2023/06/18 01:17:59;;;;;;;;;;;22.60;49.80;;;;;;5071869;28;19913;-36
2023/06/18 01:20:27;;;;;;;;;;;22.60;49.80;;;;;;5071823;28;19999;-36
2023/06/18 01:23:00;;;;;;;;;;;22.60;49.90;;;;;;5053684;28;20007;-37
2023/06/18 01:25:26;;;;;;;;;;;22.60;49.90;;;;;;5071956;28;19978;-36
2023/06/18 01:27:53;;;;;;;;;;;22.50;50.00;;;;;;5071876;28;19913;-37
2023/06/18 01:30:20;;;;;;;;;;;22.50;49.90;;;;;;5071700;28;19951;-34
2023/06/18 01:32:46;;;;;;;;;;;22.50;50.00;;;;;;5071618;28;19912;-36
2023/06/18 01:35:14;;;;;;;;;;;22.40;50.10;;;;;;5053661;28;20386;-36
2023/06/18 01:37:46;;;;;;;;;;;22.40;50.10;;;;;;5053618;28;20001;-37
2023/06/18 01:40:27;;;;;;;;;;;22.40;50.20;;;;;;5071624;28;19912;-36
2023/06/18 01:42:58;;;;;;;;;;;22.30;50.20;;;;;;5071694;28;19947;-36
2023/06/18 01:45:26;;;;;;;;;;;22.30;50.30;;;;;;5072159;28;19916;-36
2023/06/18 01:47:54;;;;;;;;;;;22.30;50.30;;;;;;5071569;28;20372;-36
2023/06/18 01:50:21;;;;;;;;;;;22.30;50.30;;;;;;5071535;28;19912;-34
2023/06/18 01:52:49;;;;;;;;;;;22.20;50.30;;;;;;5071446;28;20013;-36
2023/06/18 01:55:15;;;;;;;;;;;22.20;50.40;;;;;;5071545;28;19913;-38
2023/06/18 01:57:40;;;;;;;;;;;22.10;50.40;;;;;;5071542;28;19919;-36
2023/06/18 02:00:07;;;;;;;;;;;22.10;50.50;;;;;;5071835;28;19913;-36
2023/06/18 02:02:32;;;;;;;;;;;22.10;50.60;;;;;;5071337;28;19973;-40
2023/06/18 02:04:57;;;;;;;;;;;22.10;50.80;;;;;;5071359;28;20296;-36
2023/06/18 02:07:23;;;;;;;;;;;22.00;50.80;;;;;;5071341;28;19920;-37
2023/06/18 02:09:48;;;;;;;;;;;21.90;50.80;;;;;;5071522;28;19912;-35
2023/06/18 02:12:14;;;;;;;;;;;21.90;51.00;;;;;;5071317;28;19912;-36
2023/06/18 02:14:39;;;;;;;;;;;21.90;51.00;;;;;;5071271;28;20378;-34
2023/06/18 02:17:05;;;;;;;;;;;21.80;51.10;;;;;;5071310;28;19912;-35
2023/06/18 02:19:31;;;;;;;;;;;21.80;51.20;;;;;;5071294;28;19934;-35
2023/06/18 02:21:56;;;;;;;;;;;21.80;51.30;;;;;;5071320;28;19913;-35
2023/06/18 02:24:22;;;;;;;;;;;21.70;51.40;;;;;;5074442;28;20002;-37
2023/06/18 02:26:47;;;;;;;;;;;21.70;51.40;;;;;;5075006;28;19955;-36
2023/06/18 02:29:13;;;;;;;;;;;21.70;51.50;;;;;;5075291;28;19913;-37
2023/06/18 02:31:38;;;;;;;;;;;21.60;51.60;;;;;;5074826;28;20430;-36
2023/06/18 02:34:04;;;;;;;;;;;21.60;51.70;;;;;;5075220;28;20099;-37
2023/06/18 02:36:32;;;;;;;;;;;21.60;51.80;;;;;;5074696;28;20370;-35
2023/06/18 02:38:57;;;;;;;;;;;21.50;51.80;;;;;;5075033;28;19939;-36
2023/06/18 02:41:23;;;;;;;;;;;21.50;52.00;;;;;;5074650;28;20343;-36
2023/06/18 02:43:49;;;;;;;;;;;21.50;52.00;;;;;;5074536;28;19919;-36
2023/06/18 02:46:18;;;;;;;;;;;21.50;52.10;;;;;;5074707;28;19912;-37
2023/06/18 02:48:43;;;;;;;;;;;21.40;52.20;;;;;;5074596;28;19916;-35
2023/06/18 02:51:10;;;;;;;;;;;21.40;52.30;;;;;;5074517;28;20031;-37
2023/06/18 02:53:35;;;;;;;;;;;21.30;52.30;;;;;;5056630;28;19999;-37
2023/06/18 02:56:01;;;;;;;;;;;21.30;52.40;;;;;;5074362;28;20375;-32
2023/06/18 02:58:30;;;;;;;;;;;21.30;52.50;;;;;;5074325;28;19920;-35
2023/06/18 03:01:02;;;;;;;;;;;21.20;52.50;;;;;;5074308;28;19912;-38
2023/06/18 03:03:28;;;;;;;;;;;21.20;52.70;;;;;;5074467;28;19916;-35
2023/06/18 03:05:53;;;;;;;;;;;21.20;52.90;;;;;;5074246;28;19916;-36
2023/06/18 03:08:19;;;;;;;;;;;21.20;52.90;;;;;;5074103;28;19921;-35
2023/06/18 03:10:45;;;;;;;;;;;21.10;52.90;;;;;;5074482;28;19912;-37
2023/06/18 03:13:11;;;;;;;;;;;21.10;53.10;;;;;;5074207;28;19920;-36
2023/06/18 03:15:36;;;;;;;;;;;21.00;53.10;;;;;;5074188;28;20360;-41
2023/06/18 03:18:02;;;;;;;;;;;21.00;53.20;;;;;;5074165;28;19923;-37
2023/06/18 03:20:27;;;;;;;;;;;21.00;53.30;;;;;;5074148;28;19916;-36
2023/06/18 03:22:53;;;;;;;;;;;21.00;53.50;;;;;;5073898;28;19920;-37
2023/06/18 03:25:19;;;;;;;;;;;21.00;53.50;;;;;;5073868;28;19916;-37
2023/06/18 03:27:48;;;;;;;;;;;21.00;53.60;;;;;;5074008;28;19950;-37
2023/06/18 03:30:14;;;;;;;;;;;20.90;53.60;;;;;;5073839;28;19908;-37
2023/06/18 03:32:39;;;;;;;;;;;20.90;53.70;;;;;;5073721;28;19915;-35
2023/06/18 03:35:05;;;;;;;;;;;20.90;53.80;;;;;;5073380;28;20336;-36
2023/06/18 03:37:31;;;;;;;;;;;20.90;53.90;;;;;;5073751;28;19916;-36
2023/06/18 03:39:57;;;;;;;;;;;20.90;54.00;;;;;;5073699;28;20298;-45
2023/06/18 03:42:23;;;;;;;;;;;20.90;54.00;;;;;;5073598;28;19999;-37
2023/06/18 03:44:48;;;;;;;;;;;20.90;54.00;;;;;;5073565;28;19912;-35
2023/06/18 03:47:14;;;;;;;;;;;20.90;54.00;;;;;;5073860;28;19916;-35
2023/06/18 03:49:39;;;;;;;;;;;20.90;54.10;;;;;;5073441;28;19909;-35
2023/06/18 03:52:05;;;;;;;;;;;20.90;54.20;;;;;;5055400;28;20428;-38
2023/06/18 03:54:31;;;;;;;;;;;20.90;54.30;;;;;;5073335;28;19908;-37
2023/06/18 03:56:57;;;;;;;;;;;20.90;54.30;;;;;;5073353;28;19908;-36
2023/06/18 03:59:23;;;;;;;;;;;20.90;54.40;;;;;;5073182;28;20320;-38
2023/06/18 04:01:49;;;;;;;;;;;20.80;54.40;;;;;;5073074;28;19916;-37
2023/06/18 04:04:15;;;;;;;;;;;20.90;54.50;;;;;;5072970;28;20359;-37
2023/06/18 04:06:40;;;;;;;;;;;20.90;54.50;;;;;;5073080;28;19916;-36
2023/06/18 04:09:06;;;;;;;;;;;20.90;54.40;;;;;;5073208;28;19973;-38
2023/06/18 04:11:31;;;;;;;;;;;21.00;54.50;;;;;;5073345;28;19915;-37
2023/06/18 04:13:57;;;;;;;;;;;20.90;54.40;;;;;;5072974;28;19909;-36
2023/06/18 04:16:22;;;;;;;;;;;21.00;54.50;;;;;;5072911;28;19966;-36
2023/06/18 04:18:48;;;;;;;;;;;20.90;54.50;;;;;;5072990;28;19916;-35
2023/06/18 04:21:13;;;;;;;;;;;21.00;54.60;;;;;;5072773;28;19908;-36
2023/06/18 04:23:40;;;;;;;;;;;21.00;54.50;;;;;;5072576;28;19920;-37
2023/06/18 04:26:05;;;;;;;;;;;21.00;54.50;;;;;;5072706;28;20404;-36
2023/06/18 04:28:31;;;;;;;;;;;21.00;54.50;;;;;;5072806;28;20007;-36
2023/06/18 04:30:56;;;;;;;;;;;21.10;54.60;;;;;;5072828;28;20360;-37
2023/06/18 04:33:22;;;;;;;;;;;21.10;54.50;;;;;;5054928;28;19909;-37
2023/06/18 04:35:47;;;;;;;;;;;21.20;54.50;;;;;;5072658;28;19995;-36
2023/06/18 04:38:13;;;;;;;;;;;21.20;54.40;;;;;;5072492;28;19915;-36
2023/06/18 04:40:38;;;;;;;;;;;21.20;54.50;;;;;;5072616;28;19962;-36
2023/06/18 04:43:04;;;;;;;;;;;21.30;54.50;;;;;;5072425;28;20042;-37
2023/06/18 04:45:29;;;;;;;;;;;21.30;54.50;;;;;;5071591;28;19912;-35
2023/06/18 04:47:55;;;;;;;;;;;21.40;54.50;;;;;;5072326;28;20330;-36
2023/06/18 04:50:21;;;;;;;;;;;21.30;54.50;;;;;;5072318;28;19940;-35
2023/06/18 04:52:46;;;;;;;;;;;21.40;54.50;;;;;;5072190;28;19934;-37
2023/06/18 04:55:11;;;;;;;;;;;21.40;54.50;;;;;;5072106;28;19915;-34
2023/06/18 04:57:37;;;;;;;;;;;21.40;54.50;;;;;;5072017;28;19905;-37
2023/06/18 05:00:04;;;;;;;;;;;21.50;54.60;;;;;;5072244;28;20322;-36
2023/06/18 05:02:30;;;;;;;;;;;21.50;54.60;;;;;;5072088;28;19914;-34
2023/06/18 05:04:56;;;;;;;;;;;21.50;54.60;;;;;;5072038;28;19912;-35
2023/06/18 05:07:21;;;;;;;;;;;21.50;54.60;;;;;;5071908;28;19916;-34
2023/06/18 05:09:47;;;;;;;;;;;21.60;54.60;;;;;;5072130;28;19915;-36
2023/06/18 05:12:12;;;;;;;;;;;21.60;54.70;;;;;;5072008;28;19912;-34
2023/06/18 05:14:38;;;;;;;;;;;21.60;54.60;;;;;;5071976;28;20386;-35
2023/06/18 05:17:03;;;;;;;;;;;21.60;54.60;;;;;;5071966;28;19909;-44
2023/06/18 05:19:29;;;;;;;;;;;21.70;54.60;;;;;;5072060;28;19916;-36
2023/06/18 05:21:54;;;;;;;;;;;21.60;54.60;;;;;;5072303;28;20355;-36
2023/06/18 05:24:20;;;;;;;;;;;21.70;54.60;;;;;;5071581;28;20187;-36
2023/06/18 05:26:45;;;;;;;;;;;21.70;54.60;;;;;;5071397;28;19962;-37
2023/06/18 05:29:13;;;;;;;;;;;21.70;54.70;;;;;;5071517;28;19947;-35
2023/06/18 05:31:38;;;;;;;;;;;21.70;54.60;;;;;;5053736;28;19908;-36
2023/06/18 05:34:04;;;;;;;;;;;21.70;54.70;;;;;;5071628;28;19908;-35
2023/06/18 05:36:29;;;;;;;;;;;21.70;54.60;;;;;;5071713;28;19915;-35
2023/06/18 05:38:59;;;;;;;;;;;21.80;54.70;;;;;;5071528;28;19999;-36
2023/06/18 05:41:25;;;;;;;;;;;21.70;54.70;;;;;;5071703;28;19909;-36
2023/06/18 05:43:51;;;;;;;;;;;21.80;54.70;;;;;;5071649;28;19916;-36
2023/06/18 05:46:16;;;;;;;;;;;21.80;54.70;;;;;;5071659;28;19987;-36
2023/06/18 05:48:41;;;;;;;;;;;21.80;54.70;;;;;;5071812;28;19951;-37
2023/06/18 05:51:07;;;;;;;;;;;21.80;54.80;;;;;;5071602;28;19909;-37
2023/06/18 05:53:32;;;;;;;;;;;21.90;54.80;;;;;;5071607;28;20329;-35
2023/06/18 05:55:58;;;;;;;;;;;21.90;54.80;;;;;;5071510;28;19908;-41
2023/06/18 05:58:24;;;;;;;;;;;21.90;54.70;;;;;;5075225;28;19908;-36
2023/06/18 06:00:49;;;;;;;;;;;22.00;54.70;;;;;;5075534;28;19908;-36
2023/06/18 06:03:15;;;;;;;;;;;22.00;54.70;;;;;;5075379;28;20380;-34
2023/06/18 06:05:40;;;;;;;;;;;22.10;54.50;;;;;;5075465;28;20283;-35
2023/06/18 06:08:06;;;;;;;;;;;22.20;54.50;;;;;;5075823;28;20279;-37
2023/06/18 06:10:33;;;;;;;;;;;22.20;54.40;;;;;;5075438;28;20362;-34
2023/06/18 06:12:58;;;;;;;;;;;22.20;54.20;;;;;;5075558;28;19956;-38
2023/06/18 06:15:24;;;;;;;;;;;22.30;54.30;;;;;;5075285;28;19979;-33
2023/06/18 06:17:49;;;;;;;;;;;22.40;54.20;;;;;;5057193;28;19908;-36
2023/06/18 06:20:15;;;;;;;;;;;22.40;54.10;;;;;;5075285;28;19908;-37
2023/06/18 06:22:40;;;;;;;;;;;22.50;54.10;;;;;;5074813;28;19963;-37
2023/06/18 06:25:06;;;;;;;;;;;22.50;54.00;;;;;;5074915;28;19919;-38
2023/06/18 06:27:33;;;;;;;;;;;22.60;54.60;;;;;;5074871;28;19908;-37
2023/06/18 06:30:01;;;;;;;;;;;22.60;53.90;;;;;;5057007;28;19909;-38
2023/06/18 06:32:27;;;;;;;;;;;22.70;53.80;;;;;;5057311;28;19991;-40
2023/06/18 06:34:52;;;;;;;;;;;22.80;53.90;;;;;;5074932;28;19959;-36
2023/06/18 06:37:18;;;;;;;;;;;22.80;53.80;;;;;;5074965;28;19908;-37
2023/06/18 06:39:43;;;;;;;;;;;22.90;53.70;;;;;;5056810;28;20307;-36
2023/06/18 06:42:10;;;;;;;;;;;22.90;53.60;;;;;;5074996;28;20360;-36
2023/06/18 06:44:36;;;;;;;;;;;23.00;53.40;;;;;;5074672;28;19920;-38
2023/06/18 06:47:02;;;;;;;;;;;23.00;53.40;;;;;;5074704;28;19908;-36
2023/06/18 06:49:27;;;;;;;;;;;23.10;53.40;;;;;;5074977;28;20017;-37
2023/06/18 06:51:54;;;;;;;;;;;23.20;53.30;;;;;;5074619;28;19908;-35
2023/06/18 06:54:19;;;;;;;;;;;23.30;53.10;;;;;;5056548;28;19912;-44
2023/06/18 06:56:45;;;;;;;;;;;23.40;53.00;;;;;;5074444;28;20307;-37
2023/06/18 06:59:10;;;;;;;;;;;23.50;52.70;;;;;;5074587;28;19987;-36
2023/06/18 07:01:36;;;;;;;;;;;23.70;52.60;;;;;;5056388;28;20441;-37
2023/06/18 07:04:01;;;;;;;;;;;23.80;52.50;;;;;;5074272;28;20007;-35
2023/06/18 07:06:27;;;;;;;;;;;23.90;52.30;;;;;;5074444;28;19917;-36
2023/06/18 07:08:53;;;;;;;;;;;23.90;52.10;;;;;;5073621;28;20034;-35
2023/06/18 07:11:18;;;;;;;;;;;24.00;52.00;;;;;;5074357;28;19916;-37
2023/06/18 07:13:44;;;;;;;;;;;24.10;51.90;;;;;;5074321;28;19908;-37
2023/06/18 07:16:09;;;;;;;;;;;24.20;51.80;;;;;;5074410;28;20257;-37
2023/06/18 07:18:35;;;;;;;;;;;24.20;51.60;;;;;;5056053;28;19908;-37
2023/06/18 07:21:00;;;;;;;;;;;24.30;51.50;;;;;;5074189;28;20431;-36
2023/06/18 07:23:26;;;;;;;;;;;24.40;51.30;;;;;;5073755;28;20368;-36
2023/06/18 07:25:51;;;;;;;;;;;24.50;51.10;;;;;;5074035;28;20225;-36
2023/06/18 07:28:17;;;;;;;;;;;24.60;50.90;;;;;;5073914;28;19955;-36
2023/06/18 07:30:42;;;;;;;;;;;24.70;50.70;;;;;;5073927;28;19912;-36
2023/06/18 07:33:07;;;;;;;;;;;24.90;50.60;;;;;;5073743;28;19916;-37
2023/06/18 07:35:33;;;;;;;;;;;25.00;50.50;;;;;;5073685;28;20011;-36
2023/06/18 07:37:59;;;;;;;;;;;25.10;50.30;;;;;;5073671;28;19931;-37
2023/06/18 07:40:25;;;;;;;;;;;25.30;50.20;;;;;;5073567;28;19954;-35
2023/06/18 07:42:51;;;;;;;;;;;25.30;50.00;;;;;;5073821;28;20292;-36
2023/06/18 07:45:16;;;;;;;;;;;25.40;49.90;;;;;;5073616;28;19912;-36
2023/06/18 07:47:42;;;;;;;;;;;25.40;49.80;;;;;;5073695;28;19912;-37
2023/06/18 07:50:08;;;;;;;;;;;25.40;49.50;;;;;;5055920;28;20371;-38
2023/06/18 07:52:34;;;;;;;;;;;25.40;49.50;;;;;;5073722;28;19995;-35
2023/06/18 07:54:59;;;;;;;;;;;25.50;49.40;;;;;;5073419;28;19970;-36
2023/06/18 07:57:25;;;;;;;;;;;25.60;49.30;;;;;;5073285;28;19958;-37
2023/06/18 07:59:50;;;;;;;;;;;25.70;49.10;;;;;;5073475;28;19961;-35
2023/06/18 08:02:16;;;;;;;;;;;25.80;49.00;;;;;;5073275;28;20004;-37
2023/06/18 08:04:41;;;;;;;;;;;25.80;48.80;;;;;;5073267;28;19912;-37
2023/06/18 08:07:07;;;;;;;;;;;25.90;48.70;;;;;;5073173;28;19966;-36
2023/06/18 08:09:33;;;;;;;;;;;25.90;48.60;;;;;;5055181;28;20284;-36
2023/06/18 08:11:59;;;;;;;;;;;25.90;48.60;;;;;;5073189;28;19915;-36
2023/06/18 08:14:24;;;;;;;;;;;25.90;48.60;;;;;;5073030;28;19908;-38
2023/06/18 08:16:50;;;;;;;;;;;25.90;48.70;;;;;;5073033;28;19909;-38
2023/06/18 08:19:15;;;;;;;;;;;25.90;48.70;;;;;;5073163;28;19924;-37
2023/06/18 08:21:41;;;;;;;;;;;25.90;48.60;;;;;;5072907;28;19985;-37
2023/06/18 08:24:06;;;;;;;;;;;26.00;48.70;;;;;;5072729;28;19928;-39
2023/06/18 08:26:32;;;;;;;;;;;26.00;48.60;;;;;;5072996;28;19913;-36
2023/06/18 08:28:58;;;;;;;;;;;26.00;48.40;;;;;;5072727;28;19954;-40
2023/06/18 08:31:23;;;;;;;;;;;26.10;48.40;;;;;;5072815;28;20137;-38
2023/06/18 08:33:49;;;;;;;;;;;26.10;48.30;;;;;;5072871;28;20372;-37
2023/06/18 08:36:15;;;;;;;;;;;26.20;48.20;;;;;;5072887;28;20431;-37
2023/06/18 08:38:40;;;;;;;;;;;26.30;48.10;;;;;;5072644;28;19954;-36
2023/06/18 08:41:07;;;;;;;;;;;26.30;47.90;;;;;;5072514;28;19915;-36
2023/06/18 08:43:35;;;;;;;;;;;26.40;47.80;;;;;;5072473;28;19920;-35
2023/06/18 08:46:10;;;;;;;;;;;26.40;47.60;;;;;;5072577;28;20279;-35
2023/06/18 08:48:48;;;;;;;;;;;26.50;47.50;;;;;;5072573;28;19995;-37
2023/06/18 08:51:15;;;;;;;;;;;26.60;47.40;;;;;;5072383;28;20160;-36
2023/06/18 08:53:40;;;;;;;;;;;26.70;47.30;;;;;;5072292;28;19909;-36
2023/06/18 08:56:06;;;;;;;;;;;26.80;47.20;;;;;;5072224;28;19909;-37
2023/06/18 08:58:33;;;;;;;;;;;26.90;46.90;;;;;;5072321;28;20316;-36
2023/06/18 09:01:00;;;;;;;;;;;26.90;46.80;;;;;;5072595;28;19985;-36
2023/06/18 09:03:26;;;;;;;;;;;27.00;46.60;;;;;;5072320;28;19915;-39
2023/06/18 09:05:52;;;;;;;;;;;27.10;46.50;;;;;;5072500;28;20355;-38
2023/06/18 09:08:17;;;;;;;;;;;27.20;46.30;;;;;;5072396;28;19908;-38
2023/06/18 09:10:43;;;;;;;;;;;27.20;46.00;;;;;;5071988;28;19912;-37
2023/06/18 09:13:08;;;;;;;;;;;27.30;45.80;;;;;;5072191;28;19916;-43
2023/06/18 09:15:34;;;;;;;;;;;27.30;45.50;;;;;;5071963;28;19908;-37
2023/06/18 09:17:59;;;;;;;;;;;27.40;45.60;;;;;;5072140;28;19912;-38
2023/06/18 09:20:26;;;;;;;;;;;27.50;45.50;;;;;;5072165;28;19915;-36
2023/06/18 09:22:51;;;;;;;;;;;27.60;45.20;;;;;;5071866;28;19931;-37
2023/06/18 09:25:18;;;;;;;;;;;27.70;45.00;;;;;;5071884;28;20419;-36
2023/06/18 09:27:44;;;;;;;;;;;27.80;44.80;;;;;;5071897;28;20000;-36
2023/06/18 09:30:17;;;;;;;;;;;27.90;44.60;;;;;;5072019;28;19990;-36
2023/06/18 09:32:46;;;;;;;;;;;28.00;44.40;;;;;;5071361;28;20233;-36
2023/06/18 09:35:13;;;;;;;;;;;28.10;44.20;;;;;;5071706;28;19987;-38
2023/06/18 09:37:39;;;;;;;;;;;28.10;43.60;;;;;;5071949;28;20399;-36
2023/06/18 09:40:14;;;;;;;;;;;28.20;43.60;;;;;;5071668;28;19951;-35
2023/06/18 09:42:40;;;;;;;;;;;28.20;43.50;;;;;;5071774;28;20314;-35
2023/06/18 09:45:06;;;;;;;;;;;28.30;43.20;;;;;;5071308;28;19985;-34
2023/06/18 09:47:31;;;;;;;;;;;28.30;43.10;;;;;;5071447;28;20360;-37
2023/06/18 09:49:57;;;;;;;;;;;28.30;43.00;;;;;;5071624;28;19912;-36
2023/06/18 09:52:23;;;;;;;;;;;28.30;43.00;;;;;;5071620;28;20003;-38
2023/06/18 09:54:48;;;;;;;;;;;28.30;42.90;;;;;;5071808;28;19988;-37
2023/06/18 09:57:15;;;;;;;;;;;28.30;42.80;;;;;;5071652;28;19908;-36
2023/06/18 09:59:41;;;;;;;;;;;28.30;42.50;;;;;;5071699;28;19909;-38
2023/06/18 10:02:07;;;;;;;;;;;28.40;42.60;;;;;;5071767;28;19909;-36
2023/06/18 10:04:33;;;;;;;;;;;28.40;42.40;;;;;;5071795;28;20390;-37
2023/06/18 10:07:02;;;;;;;;;;;28.50;42.40;;;;;;5071474;28;20360;-37
2023/06/18 10:09:32;;;;;;;;;;;28.50;42.40;;;;;;5071439;28;20007;-36
2023/06/18 10:11:59;;;;;;;;;;;28.60;42.40;;;;;;5071469;28;19915;-35
2023/06/18 10:14:27;;;;;;;;;;;28.70;42.30;;;;;;5071587;28;19909;-36
2023/06/18 10:16:53;;;;;;;;;;;28.70;42.20;;;;;;5071732;28;19916;-37
2023/06/18 10:19:37;;;;;;;;;;;28.80;42.00;;;;;;5053295;28;19910;-35
2023/06/18 10:22:03;;;;;;;;;;;28.80;42.10;;;;;;5071118;28;20457;-36
2023/06/18 10:24:43;;;;;;;;;;;28.80;42.10;;;;;;5070953;28;19920;-35
2023/06/18 10:27:08;;;;;;;;;;;28.80;42.10;;;;;;5071314;28;19932;-33
2023/06/18 10:29:34;;;;;;;;;;;28.90;42.00;;;;;;5071286;28;20008;-36
2023/06/18 10:32:03;;;;;;;;;;;28.90;41.70;;;;;;5071270;28;20019;-35
2023/06/18 10:34:29;;;;;;;;;;;29.00;41.40;;;;;;5071411;28;19930;-35
2023/06/18 10:36:55;;;;;;;;;;;29.00;41.30;;;;;;5070897;28;20003;-35
2023/06/18 10:39:21;;;;;;;;;;;29.00;41.10;;;;;;5071312;28;19954;-36
2023/06/18 10:41:46;;;;;;;;;;;29.00;41.10;;;;;;5070961;28;19915;-36
2023/06/18 10:44:12;;;;;;;;;;;29.10;41.00;;;;;;5072597;28;19912;-37
2023/06/18 10:46:37;;;;;;;;;;;29.10;41.00;;;;;;5056917;28;19908;-35
2023/06/18 10:49:15;;;;;;;;;;;29.10;40.80;;;;;;5074891;28;20371;-37
2023/06/18 10:51:41;;;;;;;;;;;29.10;40.80;;;;;;5074512;28;19962;-38
2023/06/18 10:54:20;;;;;;;;;;;29.10;40.90;;;;;;5074692;28;19909;-40
2023/06/18 10:56:51;;;;;;;;;;;29.10;41.00;;;;;;5074298;28;19908;-41
2023/06/18 10:59:32;;;;;;;;;;;29.10;41.20;;;;;;5074892;28;19908;-37
2023/06/18 11:02:00;;;;;;;;;;;29.10;41.20;;;;;;5074707;28;19909;-36
2023/06/18 11:04:29;;;;;;;;;;;29.00;41.10;;;;;;5074429;28;19919;-35
2023/06/18 11:07:10;;;;;;;;;;;29.00;41.00;;;;;;5074807;28;19916;-35
2023/06/18 11:09:45;;;;;;;;;;;28.90;41.00;;;;;;5074564;28;19908;-38
2023/06/18 11:12:21;;;;;;;;;;;28.90;41.00;;;;;;5074374;28;19909;-37
2023/06/18 11:15:22;;;;;;;;;;;28.80;40.90;;;;;;5074654;28;19916;-35
2023/06/18 11:17:50;;;;;;;;;;;28.70;40.80;;;;;;5012284;28;19910;-36
2023/06/18 11:20:17;;;;;;;;;;;28.70;40.90;;;;;;5062598;28;20007;-35
2023/06/18 11:22:42;;;;;;;;;;;28.70;40.80;;;;;;5074175;28;20354;-37
2023/06/18 11:25:09;;;;;;;;;;;28.60;40.90;;;;;;5074267;28;19970;-35
2023/06/18 11:27:35;;;;;;;;;;;28.60;40.90;;;;;;5074152;28;19908;-35
2023/06/18 11:30:01;;;;;;;;;;;28.60;41.00;;;;;;5074148;28;19932;-37
2023/06/18 11:32:26;;;;;;;;;;;28.50;41.10;;;;;;5056164;28;19908;-41
2023/06/18 11:34:55;;;;;;;;;;;28.50;41.10;;;;;;5074245;28;19999;-35
2023/06/18 11:37:23;;;;;;;;;;;28.40;41.20;;;;;;5074082;28;19909;-37
2023/06/18 11:39:48;;;;;;;;;;;28.40;41.30;;;;;;5073834;28;20003;-36
2023/06/18 11:42:25;;;;;;;;;;;28.40;41.40;;;;;;5073919;28;19951;-38
2023/06/18 11:44:52;;;;;;;;;;;28.30;41.40;;;;;;5074182;28;19959;-35
2023/06/18 11:47:18;;;;;;;;;;;28.20;41.50;;;;;;5073961;28;20367;-36
2023/06/18 11:49:44;;;;;;;;;;;28.10;41.50;;;;;;5073485;28;19967;-36
2023/06/18 11:52:10;;;;;;;;;;;28.10;41.60;;;;;;5073971;28;19995;-35
2023/06/18 11:54:39;;;;;;;;;;;28.00;41.60;;;;;;5073360;28;19909;-36
2023/06/18 11:57:12;;;;;;;;;;;28.00;41.70;;;;;;5073567;28;20014;-35
2023/06/18 11:59:41;;;;;;;;;;;28.10;41.80;;;;;;5073517;28;19961;-34
2023/06/18 12:02:14;;;;;;;;;;;28.10;41.90;;;;;;5073258;28;19920;-34
2023/06/18 12:04:40;;;;;;;;;;;28.00;42.10;;;;;;5073182;28;20316;-36
2023/06/18 12:07:05;;;;;;;;;;;27.90;42.30;;;;;;5073643;28;19954;-36
2023/06/18 12:09:35;;;;;;;;;;;28.00;42.50;;;;;;5073728;28;19939;-36
2023/06/18 12:12:03;;;;;;;;;;;27.90;42.50;;;;;;5073419;28;19908;-35
2023/06/18 12:14:38;;;;;;;;;;;27.90;42.60;;;;;;5073479;28;19909;-34
2023/06/18 12:17:33;;;;;;;;;;;27.90;42.70;;;;;;5073168;28;19995;-37
2023/06/18 12:20:01;;;;;;;;;;;27.90;42.70;;;;;;5059469;28;19909;-36
2023/06/18 12:22:27;;;;;;;;;;;28.00;42.90;;;;;;5072907;28;19951;-35
2023/06/18 12:24:53;;;;;;;;;;;28.00;42.90;;;;;;5072617;28;19967;-36
2023/06/18 12:27:20;;;;;;;;;;;28.10;43.00;;;;;;5072894;28;20421;-37
2023/06/18 12:29:45;;;;;;;;;;;28.10;42.90;;;;;;5072853;28;19955;-41
2023/06/18 12:32:12;;;;;;;;;;;28.10;43.00;;;;;;5072922;28;19986;-38
2023/06/18 12:34:37;;;;;;;;;;;28.10;43.00;;;;;;5072981;28;20310;-35
2023/06/18 12:37:03;;;;;;;;;;;28.20;43.10;;;;;;5073279;28;19917;-37
2023/06/18 12:39:28;;;;;;;;;;;28.30;43.10;;;;;;5072458;28;20316;-35
2023/06/18 12:41:55;;;;;;;;;;;28.20;43.00;;;;;;5072877;28;19912;-37
2023/06/18 12:44:21;;;;;;;;;;;28.10;43.00;;;;;;5072770;28;19923;-35
2023/06/18 12:46:49;;;;;;;;;;;28.10;43.10;;;;;;5072700;28;19995;-36
2023/06/18 12:49:15;;;;;;;;;;;28.10;43.20;;;;;;5072448;28;20302;-36
2023/06/18 12:51:44;;;;;;;;;;;28.10;43.20;;;;;;5072367;28;19982;-37
2023/06/18 12:54:14;;;;;;;;;;;28.10;43.10;;;;;;5072231;28;19920;-35
2023/06/18 12:56:49;;;;;;;;;;;28.20;43.10;;;;;;5072123;28;19913;-35
2023/06/18 12:59:17;;;;;;;;;;;28.20;43.00;;;;;;5072426;28;19952;-36
2023/06/18 13:01:43;;;;;;;;;;;28.30;43.00;;;;;;5072229;28;19970;-37
2023/06/18 13:04:10;;;;;;;;;;;28.30;43.50;;;;;;5072184;28;20404;-34
2023/06/18 13:06:35;;;;;;;;;;;28.30;42.90;;;;;;5053574;28;19912;-35
2023/06/18 13:09:02;;;;;;;;;;;28.30;42.80;;;;;;5071963;28;19913;-38
2023/06/18 13:11:28;;;;;;;;;;;28.30;42.90;;;;;;5072298;28;20307;-34
2023/06/18 13:13:53;;;;;;;;;;;28.20;42.90;;;;;;5071883;28;19913;-42
2023/06/18 13:16:19;;;;;;;;;;;28.20;42.90;;;;;;5071969;28;19987;-36
2023/06/18 13:18:45;;;;;;;;;;;28.20;42.90;;;;;;5071780;28;19912;-36
2023/06/18 13:21:10;;;;;;;;;;;28.20;42.90;;;;;;5071781;28;19912;-36
2023/06/18 13:23:35;;;;;;;;;;;28.20;42.80;;;;;;5071881;28;20073;-36
2023/06/18 13:26:03;;;;;;;;;;;28.30;42.70;;;;;;5053050;28;22121;-35
2023/06/18 13:28:29;;;;;;;;;;;28.20;42.70;;;;;;5071530;28;19912;-34
2023/06/18 13:30:54;;;;;;;;;;;28.20;42.70;;;;;;5071808;28;19935;-35
2023/06/18 13:33:20;;;;;;;;;;;28.20;42.70;;;;;;5071750;28;20304;-35
2023/06/18 13:35:46;;;;;;;;;;;28.10;42.80;;;;;;5071614;28;20007;-35
2023/06/18 13:38:11;;;;;;;;;;;28.00;42.80;;;;;;5053345;28;19957;-36
2023/06/18 13:40:37;;;;;;;;;;;28.00;42.70;;;;;;5071663;28;20027;-36
2023/06/18 13:43:03;;;;;;;;;;;28.00;42.70;;;;;;5071591;28;19923;-35
2023/06/18 13:45:28;;;;;;;;;;;27.90;42.50;;;;;;5071652;28;19916;-36
2023/06/18 13:47:54;;;;;;;;;;;27.90;42.60;;;;;;5053533;28;19974;-44
2023/06/18 13:50:20;;;;;;;;;;;27.80;42.70;;;;;;5053593;28;19919;-35
2023/06/18 13:52:45;;;;;;;;;;;27.80;42.70;;;;;;5071865;28;19995;-37
2023/06/18 13:55:11;;;;;;;;;;;27.70;42.80;;;;;;5071558;28;19912;-36
2023/06/18 13:57:37;;;;;;;;;;;27.70;43.20;;;;;;5071525;28;20034;-36
2023/06/18 14:00:03;;;;;;;;;;;27.60;43.30;;;;;;5071725;28;20012;-36
2023/06/18 14:02:28;;;;;;;;;;;27.50;43.50;;;;;;5071204;28;19999;-35
2023/06/18 14:04:54;;;;;;;;;;;27.50;44.00;;;;;;5071571;28;20007;-36
2023/06/18 14:07:20;;;;;;;;;;;27.30;44.80;;;;;;5071507;28;19923;-38
2023/06/18 14:09:45;;;;;;;;;;;27.30;44.40;;;;;;5071073;28;19943;-37
2023/06/18 14:12:12;;;;;;;;;;;27.20;44.70;;;;;;5053060;28;19908;-36
2023/06/18 14:14:38;;;;;;;;;;;27.20;44.90;;;;;;5071410;28;19943;-35